• Join FlightAware (Why Join?)
  • Login
  • US Flag 
07:05AM EDT


 

Airport Tracker/Info


-or-


 

Live Flight TrackerFlight Track Log ✈ EIN592 ✈ 07-Sep-2013 ✈ EIDW / DUB - LEMD / MAD

Flight Track Log - Related Links

Times and Time Zones

All times are in EDT time to prevent confusion due to time zone crossing. See the EIN592 flight status page for this flight to view local times or setup timezone preferences in your user account.

Time Position Orientation Groundspeed Altitude Reporting Facility
EDT Latitude Longitude Course Direction KTS MPH feet Rate Location/Type
01:28AM 53.4210 -6.2680 180° South 140 161  Level FlightAware
01:28AM 53.4220 -6.2910 274° West 131 151 1,300 3,300 Climbing FlightAware
01:28AM 53.4240 -6.3100 280° West 131 151 2,200 1,860 Climbing FlightAware
01:29AM 53.4260 -6.3360 277° West 165 190 2,700 1,200 Climbing FlightAware
01:29AM 53.4280 -6.3650 277° West 195 224 3,100 1,320 Climbing FlightAware
01:29AM 53.4290 -6.3900 274° West 222 255 3,500 1,680 Climbing FlightAware
01:30AM 53.4230 -6.4230 253° West 260 299 4,100 2,040 Climbing FlightAware
01:30AM 53.4190 -6.4320 233° Southwest 269 310 4,400 2,700 Climbing FlightAware
01:30AM 53.4060 -6.4460 213° Southwest 283 326 5,000 3,420 Climbing FlightAware
01:30AM 53.3950 -6.4530 201° Southwest 287 330 5,500 4,200 Climbing FlightAware
01:30AM 53.3910 -6.4550 197° South 292 336 5,700 2,700 Climbing FlightAware
01:30AM 53.3840 -6.4560 185° South 296 341 6,000 3,660 Climbing FlightAware
01:31AM 53.3450 -6.4500 175° South 294 338 7,600 3,720 Climbing FlightAware
01:31AM 53.3170 -6.4460 175° South 295 339 8,800 3,060 Climbing FlightAware
01:32AM 53.2650 -6.4370 174° South 312 359 10,500 2,100 Climbing FlightAware
01:32AM 53.2120 -6.4240 174° South 361 415 11,300 1,380 Climbing FlightAware
01:32AM 53.2034 -6.4234 174° South 332 382 11,400 3,660 Climbing FlightAware UK
01:33AM 53.1535 -6.4111 174° South 334 384 13,400 3,720 Climbing FlightAware UK
01:33AM 53.1530 -6.4100 174° South 355 409 13,400 2,640 Level FlightAware
01:33AM 53.0970 -6.4020 175° South 355 409 15,000 2,700 Climbing FlightAware
01:34AM 53.0360 -6.3950 176° South 371 427 16,600 2,520 Climbing FlightAware
01:35AM 52.9750 -6.3870 175° South 373 429 18,000 2,280 Climbing FlightAware
01:35AM 52.9130 -6.3770 174° South 391 450 19,300 2,220 Climbing FlightAware
01:36AM 52.8500 -6.3680 175° South 390 449 20,600 2,040 Climbing FlightAware
01:36AM 52.7850 -6.3590 175° South 401 461 21,700 1,920 Climbing FlightAware
01:37AM 52.7180 -6.3490 175° South 417 480 22,900 1,920 Climbing FlightAware
01:38AM 52.6468 -6.3385 175° South 394 453 24,000 1,860 Climbing FlightAware UK
01:38AM 52.6520 -6.3390 175° South 422 486 24,000 1,800 Level FlightAware
01:38AM 52.5881 -6.3303 175° South 398 458 24,900 1,680 Climbing FlightAware UK
01:38AM 52.5830 -6.3300 175° South 422 486 25,000 1,740 Climbing FlightAware
01:39AM 52.5120 -6.3190 175° South 437 503 26,100 1,680 Climbing FlightAware
01:39AM 52.4410 -6.3090 175° South 434 499 27,000 1,680 Climbing FlightAware
01:40AM 52.3720 -6.3000 175° South 437 503 28,100 1,800 Climbing FlightAware
01:40AM 52.2980 -6.2910 176° South 438 504 29,100 1,260 Climbing FlightAware
01:41AM 52.2214 -6.2800 176° South 434 499 29,600 1,020 Climbing FlightAware UK
01:41AM 52.2250 -6.2800 176° South 456 525 29,700 1,200 Climbing FlightAware
01:42AM 52.1575 -6.2702 176° South 442 509 30,200 1,200 Climbing FlightAware UK
01:42AM 52.1530 -6.2700 176° South 453 521 30,400 1,500 Climbing FlightAware
01:42AM 52.0760 -6.2600 175° South 454 522 31,200 1,620 Climbing FlightAware
01:43AM 52.0040 -6.2520 176° South 454 522 32,300 1,440 Climbing FlightAware
01:43AM 51.9290 -6.2420 175° South 451 519 32,900 1,260 Climbing FlightAware
01:44AM 51.8570 -6.2330 176° South 448 516 33,800 1,020 Climbing FlightAware
01:45AM 51.7774 -6.2219 176° South 452 520 34,100 660 Climbing FlightAware UK
01:45AM 51.7800 -6.2220 176° South 454 522 34,200 1,200 Climbing FlightAware
01:45AM 51.7070 -6.2130 176° South 455 524 34,800 960 Climbing FlightAware
01:45AM 51.7015 -6.2120 176° South 450 518 34,800 540 Level FlightAware UK
01:46AM 51.6380 -6.1886 176° South 454 522 35,100 840 Climbing FlightAware UK
01:46AM 51.6340 -6.1860 176° South 465 535 35,300 1,320 Climbing FlightAware
01:46AM 51.5650 -6.1460 160° South 460 529 36,000 1,020 Climbing FlightAware
01:47AM 51.4940 -6.1070 161° South 458 527 36,500 780 Climbing FlightAware
01:47AM 51.4260 -6.0690 161° South 458 527 36,900 420 Climbing FlightAware
01:48AM 51.3560 -6.0300 161° South 458 527 37,000 60 Climbing FlightAware
01:49AM 51.2830 -5.9900 161° South 447 514 37,000  Level FlightAware
01:49AM 51.2069 -5.9462 161° South 448 516 37,000  Level FlightAware UK
01:49AM 51.2080 -5.9470 161° South 445 512 37,000  Level FlightAware
01:50AM 51.1260 -5.9020 161° South 448 516 37,000  Level FlightAware
01:51AM 51.0630 -5.8670 161° South 448 516 37,000  Level FlightAware
01:51AM 50.9920 -5.8280 161° South 449 517 37,000  Level FlightAware
01:52AM 50.9170 -5.7870 161° South 450 518 37,000 -120 Level FlightAware
01:52AM 50.8541 -5.7519 161° South 448 516 36,900  Descending FlightAware UK
01:52AM 50.8560 -5.7530 161° South 450 518 37,000 120 Climbing FlightAware
01:53AM 50.7840 -5.7140 161° South 449 517 37,000  Level FlightAware
01:53AM 50.7150 -5.6760 161° South 449 517 37,000  Level FlightAware
01:54AM 50.6490 -5.6400 161° South 448 516 37,000  Level FlightAware
01:55AM 50.5760 -5.6010 161° South 448 516 37,000  Level FlightAware
01:55AM 50.5060 -5.5640 161° South 449 517 37,000  Level FlightAware
01:56AM 50.4410 -5.5290 161° South 448 516 37,000  Level FlightAware
01:56AM 50.3750 -5.4940 161° South 447 514 37,000  Level FlightAware
01:57AM 50.3110 -5.4590 161° South 445 512 37,000  Level FlightAware
01:58AM 50.2400 -5.4210 161° South 444 511 37,000  Level FlightAware
01:58AM 50.2312 -5.4165 161° South 446 513 37,000  Level FlightAware UK
01:58AM 50.1729 -5.3853 161° South 450 518 37,000  Level FlightAware UK
01:58AM 50.1670 -5.3830 161° South 443 510 37,000  Level FlightAware
01:59AM 50.0970 -5.3450 161° South 441 507 37,000  Level FlightAware
01:59AM 50.0330 -5.3120 162° South 440 506 37,000  Level FlightAware
02:00AM 49.9630 -5.2750 161° South 438 504 37,000  Level FlightAware
02:00AM 49.8940 -5.2420 163° South 437 503 37,000  Level FlightAware
02:01AM 49.8290 -5.2260 171° South 436 502 37,000  Level FlightAware
02:02AM 49.7600 -5.2090 171° South 435 501 37,000  Level FlightAware
02:02AM 49.6880 -5.1910 171° South 435 501 37,000  Level FlightAware
02:03AM 49.6220 -5.1750 171° South 436 502 37,000  Level FlightAware
02:03AM 49.5499 -5.1565 171° South 446 513 37,000  Level FlightAware UK
02:03AM 49.5460 -5.1560 171° South 437 503 37,000  Level FlightAware
02:04AM 49.4770 -5.1390 171° South 439 505 37,000  Level FlightAware
02:05AM 49.4120 -5.1230 171° South 440 506 37,000  Level FlightAware
02:05AM 49.3410 -5.1050 171° South 439 505 37,000  Level FlightAware
02:06AM 49.2660 -5.0870 171° South 438 504 37,000  Level FlightAware
02:06AM 49.2040 -5.0720 171° South 438 504 37,000  Level FlightAware
02:07AM 49.1330 -5.0550 171° South 437 503 37,000  Level FlightAware
02:07AM 49.0600 -5.0370 171° South 439 505 37,000  Level FlightAware
02:08AM 48.9930 -5.0210 171° South 439 505 37,000  Level FlightAware
02:09AM 48.9160 -5.0020 171° South 451 519 37,000  Level FlightAware
02:09AM 48.8460 -4.9850 171° South 452 520 37,000  Level FlightAware
02:10AM 48.7840 -4.9700 171° South 453 521 37,000  Level FlightAware
02:10AM 48.7130 -4.9530 171° South 453 521 37,000  Level FlightAware
02:11AM 48.6330 -4.9310 170° South 456 525 37,000  Level FlightAware
02:12AM 48.5650 -4.8820 155° Southeast 462 532 37,000  Level FlightAware
02:12AM 48.4940 -4.8220 151° Southeast 460 529 37,000  Level FlightAware
02:13AM 48.4370 -4.7740 151° Southeast 458 527 37,000  Level FlightAware
02:13AM 48.3690 -4.7170 151° Southeast 457 526 37,000  Level FlightAware
02:14AM 48.3030 -4.6610 151° Southeast 457 526 37,000  Level FlightAware
02:14AM 48.2450 -4.6110 151° Southeast 459 528 37,000 -180 Level FlightAware
02:14AM 48.2374 -4.6044 151° Southeast 460 529 36,900  Descending FlightAware UK
02:15AM 48.1760 -4.5520 150° Southeast 459 528 37,000 60 Climbing FlightAware
02:16AM 48.1070 -4.4930 150° Southeast 459 528 37,000 60 Level FlightAware
02:16AM 48.0480 -4.4440 151° Southeast 456 525 37,100  Climbing FlightAware
02:17AM 47.9820 -4.3870 150° Southeast 452 520 37,000 -120 Descending FlightAware
02:17AM 47.9140 -4.3430 157° South 444 511 37,000  Level FlightAware
02:18AM 47.8500 -4.3340 175° South 436 502 37,000  Level FlightAware
02:19AM 47.7770 -4.3280 177° South 434 499 37,000  Level FlightAware
02:19AM 47.7050 -4.3200 176° South 435 501 37,000  Level FlightAware
02:20AM 47.6310 -4.3120 176° South 434 499 37,000  Level FlightAware
02:20AM 47.5700 -4.3060 176° South 434 499 37,000  Level FlightAware
02:21AM 47.4970 -4.2980 176° South 435 501 37,000  Level FlightAware
02:21AM 47.4250 -4.2910 176° South 438 504 37,000  Level FlightAware
02:22AM 47.3530 -4.2830 176° South 440 506 37,000  Level FlightAware
02:23AM 47.2830 -4.2760 176° South 441 507 37,000  Level FlightAware
02:23AM 47.2090 -4.2690 176° South 442 509 37,000  Level FlightAware
02:24AM 47.1370 -4.2610 176° South 443 510 37,000  Level FlightAware
02:24AM 47.0710 -4.2540 176° South 443 510 37,000  Level FlightAware
02:25AM 46.9970 -4.2470 176° South 443 510 37,000  Level FlightAware
02:26AM 46.9260 -4.2400 176° South 442 509 37,000  Level FlightAware
02:26AM 46.8600 -4.2330 176° South 442 509 37,000  Level FlightAware
02:27AM 46.7870 -4.2250 176° South 442 509 37,000  Level FlightAware
02:27AM 46.7100 -4.2180 176° South 442 509 37,000  Level FlightAware
02:28AM 46.6390 -4.2110 176° South 443 510 37,000  Level FlightAware
02:28AM 46.5750 -4.2040 176° South 443 510 37,000  Level FlightAware
02:29AM 46.5000 -4.1970 176° South 441 507 37,000  Level FlightAware
02:30AM 46.4280 -4.1890 176° South 439 505 37,000  Level FlightAware
02:30AM 46.3540 -4.1820 176° South 439 505 37,000  Level FlightAware
02:31AM 46.2910 -4.1760 176° South 440 506 37,000  Level FlightAware
02:31AM 46.2180 -4.1690 176° South 442 509 37,000  Level FlightAware
02:32AM 46.1430 -4.1610 176° South 443 510 37,000  Level FlightAware
02:33AM 46.0660 -4.1540 176° South 442 509 37,000 60 Level FlightAware
02:33AM 46.0010 -4.1470 176° South 439 505 37,100  Climbing FlightAware
02:34AM 45.9290 -4.1400 176° South 436 502 37,000 -120 Descending FlightAware
02:34AM 45.8570 -4.1330 176° South 433 498 37,000  Level FlightAware
02:35AM 45.7920 -4.1270 176° South 432 497 37,000  Level FlightAware
02:35AM 45.7210 -4.1200 176° South 433 498 37,000  Level FlightAware
02:36AM 45.6490 -4.1130 176° South 432 497 37,000  Level FlightAware
02:37AM 45.5510 -4.1040 176° South 434 499 37,000 60 Level FlightAware
02:38AM 45.4700 -4.0970 177° South 433 498 37,100  Climbing FlightAware
02:38AM 45.3740 -4.0890 177° South 428 493 37,000 -60 Descending FlightAware
02:39AM 45.2720 -4.0800 176° South 426 490 37,000  Level FlightAware
02:40AM 45.1930 -4.0720 176° South 427 491 37,000  Level FlightAware
02:41AM 45.1180 -4.0630 175° South 428 493 37,000  Level FlightAware
02:41AM 45.0440 -4.0600 178° South 424 488 37,000  Level FlightAware
02:42AM 44.9680 -4.0540 177° South 423 487 37,000  Level FlightAware
02:42AM 44.9030 -4.0480 176° South 422 486 37,000  Level FlightAware
02:43AM 44.8240 -4.0440 178° South 416 479 37,000  Level FlightAware
02:44AM 44.7590 -4.0390 177° South 416 479 37,000  Level FlightAware
02:44AM 44.7000 -4.0350 177° South 416 479 37,000  Level FlightAware
02:45AM 44.6410 -4.0310 177° South 416 479 37,000  Level FlightAware
02:45AM 44.5510 -4.0250 177° South 421 484 37,000  Level FlightAware
02:46AM 44.4750 -4.0190 177° South 423 487 37,000  Level FlightAware
02:47AM 44.4160 -4.0140 177° South 423 487 37,000  Level FlightAware
02:47AM 44.3470 -4.0000 172° South 430 495 37,000  Level FlightAware
02:48AM 44.2790 -3.9840 170° South 423 487 37,000  Level FlightAware
02:48AM 44.2060 -3.9760 176° South 419 482 37,000  Level FlightAware
02:49AM 44.1350 -3.9690 176° South 418 481 37,000  Level FlightAware
02:50AM 44.0770 -3.9630 176° South 417 480 37,000  Level FlightAware
02:50AM 44.0000 -3.9550 176° South 419 482 37,000  Level FlightAware
02:51AM 43.9430 -3.9500 176° South 421 484 37,000  Level FlightAware
02:51AM 43.8670 -3.9430 176° South 423 487 37,000  Level FlightAware
02:52AM 43.7850 -3.9350 176° South 422 486 37,000  Level FlightAware
02:53AM 43.7150 -3.9280 176° South 421 484 37,000  Level FlightAware
02:53AM 43.6470 -3.9210 176° South 420 483 37,000  Level FlightAware
02:54AM 43.5820 -3.9150 176° South 419 482 37,000  Level FlightAware
02:54AM 43.5140 -3.9090 176° South 417 480 37,000  Level FlightAware
02:55AM 43.4180 -3.9070 179° South 412 474 37,000  Level FlightAware
02:56AM 43.3600 -3.9160 186° South 410 472 37,000  Level FlightAware
02:56AM 43.2940 -3.9260 186° South 406 467 37,000  Level FlightAware
02:57AM 43.2210 -3.9370 186° South 406 467 37,000  Level FlightAware
02:58AM 43.1560 -3.9460 186° South 408 470 37,000  Level FlightAware
02:58AM 43.0900 -3.9560 186° South 410 472 37,000  Level FlightAware
02:59AM 43.0360 -3.9630 185° South 411 473 37,000 -120 Level FlightAware
02:59AM 42.9600 -3.9740 186° South 411 473 36,900 -240 Descending FlightAware
03:00AM 42.8890 -3.9850 186° South 407 468 36,700 -1,440 Descending FlightAware
03:01AM 42.8110 -3.9970 186° South 406 467 35,100 -1,980 Descending FlightAware
03:01AM 42.7500 -4.0050 186° South 393 452 34,400 -1,320 Descending FlightAware
03:02AM 42.6900 -4.0140 186° South 400 460 33,600 -1,200 Descending FlightAware
03:02AM 42.6190 -4.0240 186° South 411 473 33,000 -600 Descending FlightAware
03:03AM 42.5650 -4.0320 186° South 405 466 33,000  Level FlightAware
03:04AM 42.4850 -4.0440 186° South 403 464 33,000  Level FlightAware
03:04AM 42.4180 -4.0540 186° South 403 464 33,000  Level FlightAware
03:05AM 42.3520 -4.0630 186° South 399 459 33,000 -120 Level FlightAware
03:05AM 42.2870 -4.0720 186° South 398 458 32,900 -120 Descending FlightAware
03:06AM 42.2220 -4.0810 186° South 398 458 32,900 60 Level FlightAware
03:06AM 42.1580 -4.0910 187° South 395 455 33,000 60 Climbing FlightAware
03:07AM 42.0860 -4.1010 186° South 392 451 33,000 60 Level FlightAware
03:08AM 42.0320 -4.1090 186° South 387 445 33,100 60 Climbing FlightAware
03:08AM 41.9690 -4.1170 185° South 381 438 33,100  Level FlightAware
03:09AM 41.9090 -4.1230 184° South 373 429 33,100 -120 Level FlightAware
03:09AM 41.8390 -4.1310 185° South 365 420 33,000 -120 Descending FlightAware
03:10AM 41.7920 -4.1360 185° South 361 415 33,000 -120 Level FlightAware
03:11AM 41.7150 -4.1450 185° South 356 410 32,900 -180 Descending FlightAware
03:11AM 41.6450 -4.1530 185° South 354 407 32,800 -1,140 Descending FlightAware
03:12AM 41.5900 -4.1590 185° South 356 410 31,600 -3,240 Descending FlightAware
03:13AM 41.5350 -4.1660 185° South 382 440 29,200 -4,200 Descending FlightAware
03:13AM 41.4720 -4.1750 186° South 399 459 26,900 -2,880 Descending FlightAware
03:14AM 41.4110 -4.1670 174° South 389 448 25,900 -1,740 Descending FlightAware
03:14AM 41.3480 -4.1570 173° South 376 433 24,900 -1,740 Descending FlightAware
03:15AM 41.2850 -4.1460 173° South 373 429 23,900 -1,680 Descending FlightAware
03:16AM 41.2180 -4.1360 174° South 361 415 22,800 -1,740 Descending FlightAware
03:16AM 41.1440 -4.1350 179° South 358 412 21,500 -1,380 Descending FlightAware
03:17AM 41.0860 -4.1440 187° South 361 415 21,000 -480 Descending FlightAware
03:17AM 41.0270 -4.1520 186° South 359 413 21,000  Level FlightAware
03:18AM 40.9700 -4.1610 187° South 358 412 21,000  Level FlightAware
03:19AM 40.9150 -4.1690 186° South 361 415 21,000 -900 Level FlightAware
03:19AM 40.8540 -4.1780 186° South 354 407 20,000 -2,100 Descending FlightAware
03:20AM 40.7980 -4.1860 186° South 350 403 18,600 -2,280 Descending FlightAware
03:20AM 40.7430 -4.1950 187° South 345 397 17,400 -2,100 Descending FlightAware
03:21AM 40.6870 -4.2030 186° South 338 389 16,200 -1,500 Descending FlightAware
03:22AM 40.6120 -4.1970 177° South 348 400 15,300 -1,200 Descending FlightAware
03:22AM 40.5990 -4.1840 143° Southeast 353 406 15,000 -1,320 Descending FlightAware
03:23AM 40.5620 -4.1160 126° Southeast 347 399 14,200 -1,200 Descending FlightAware
03:23AM 40.5310 -4.0530 123° Southeast 331 381 13,500 -1,140 Descending FlightAware
03:24AM 40.5060 -4.0050 124° Southeast 313 360 13,000 -1,200 Descending FlightAware
03:24AM 40.4760 -3.9500 126° Southeast 305 351 12,200 -1,680 Descending FlightAware
03:25AM 40.4450 -3.8910 125° Southeast 307 353 10,900 -2,160 Descending FlightAware
03:25AM 40.4250 -3.8530 125° Southeast 315 362 9,900 -2,280 Descending FlightAware
03:26AM 40.4120 -3.8290 125° Southeast 315 362 9,400 -2,040 Descending FlightAware
03:26AM 40.4000 -3.8060 124° Southeast 314 361 8,900 -2,220 Descending FlightAware
03:26AM 40.3740 -3.7580 125° Southeast 310 357 7,800 -2,220 Descending FlightAware
03:27AM 40.3580 -3.7280 125° Southeast 302 348 7,100 -2,460 Descending FlightAware
03:27AM 40.3430 -3.6940 120° Southeast 301 346 6,100 -2,820 Descending FlightAware
03:27AM 40.3390 -3.6800 111° Southeast 301 346 5,700 -1,740 Descending FlightAware
03:28AM 40.3320 -3.6480 106° East 282 325 5,300 -1,080 Descending FlightAware
03:28AM 40.3250 -3.6130 105° East 264 304 5,000 -900 Descending FlightAware
03:28AM 40.3190 -3.5840 105° East 246 283 4,700 -840 Descending FlightAware
03:29AM 40.3120 -3.5510 106° East 233 268 4,400 -780 Descending FlightAware
03:29AM 40.3110 -3.5410 97° East 232 267 4,300 -600 Descending FlightAware
03:29AM 40.3180 -3.5110 73° East 224 258 4,100 -600 Descending FlightAware
03:29AM 40.3280 -3.4890 59° Northeast 232 267 3,900 -480 Descending FlightAware
03:30AM 40.3350 -3.4840 29° Northeast 225 259 3,900 300 Level FlightAware
03:30AM 40.3460 -3.4800 15° North 213 245 4,000  Climbing FlightAware
03:30AM 40.3650 -3.4760 North 207 238 3,900 -240 Descending FlightAware
03:31AM 40.3910 -3.4810 352° North 178 205 3,800 -780 Descending FlightAware
03:31AM 40.4110 -3.5010 323° Northwest 164 189 3,100 -1,080 Descending FlightAware
03:31AM 40.4240 -3.5140 323° Northwest 147 169 2,900 -720 Descending FlightAware
03:32AM 40.4360 -3.5260 323° Northwest 148 170 2,600 -900 Descending FlightAware
03:32AM 40.4510 -3.5410 323° Northwest 143 165 2,200 -900 Descending FlightAware
03:33AM 40.4640 -3.5550 321° Northwest 143 165 1,900 -780 Descending FlightAware
03:33AM 40.4720 -3.5630 323° Northwest 115 132 -5,700 Descending FlightAware